HELX  Luxor International Airport

Add Bookmark

Luxor, Egypt

Status IATA
Operational LXR
Latitude Longitude
25° 40' 15" N 32° 42' 23" E
25.671000 32.706600
Local (DST + 2) UTC (GMT + 2)
Oct 23, 2014 01:52 Oct 22, 2014 23:52
Sunrise-Sunset Local UTC
Begin Civil Twilight 05:27 03:27
Sunrise 05:51 03:51
Sunset 05:15 15:15
End Civil Twilight 05:39 15:39

Current Weather

METAR Observed VFR
HELX 222300Z 16001KT CAVOK 21/11 Q1015 NOSIG Wed, Oct 22, 2014 @ 23:00 UTC
(52 Minutes ago)
Visual Flight Rules
Wind Visibility Clouds Conditions
160° at 1 kt (2 kph) 10 km or more
  • Clear skies
  • No significant weather
Temperatures Readings Precipitation
Current Temp 21°C (70°F)
Dewpoint 11°C (52°F)
Humidity 53%
Altimeter 29.97"Hg
Sea Level Pressure 1015mb
Field Elevation 288.71'
None Recorded

Forecast Weather

TAF
TAF HELX 222300Z 2300/2406 VRB03KT CAVOK
From To
Thu, Oct 23, 2014 @ 00:00 UTC Fri, Oct 24, 2014 @ 06:00 UTC
Wind Visibility Conditions
Varies at 3 knots (6 kph) 10 km or more
  • No significant weather

24 Hour Weather History

Loading
-

24 Hour Weather Graphs

Loading
-

CheckWX.com is intended as a tool to help pilots better visualize weather data. It is not intended as a substitute for an official weather briefing obtained from a Flight Service Station. CheckWX.com does not meet the FAA requirements for an official pre-flight weather briefing. Therefore, it's important that pilots still call and obtain an official FSS pre-flight weather briefing.